Terminal Aerodrome Forecast
Issued by NWS

Home | Current Version | Previous Version | Text Only | Print | Product List | Glossary On
Versions: 1 2 3 4 5 6 7 8 9 10 11 12 13 14 15
000
FTUS45 KVEF 312329
TAFEED
TAF
KEED 312329Z 0100/0124 21008KT P6SM FEW120 BKN200
     FM010300 24007KT P6SM FEW100 BKN200
     FM011200 17010KT P6SM VCTS SCT100CB BKN150 PROB30 0112/0118
      VRB20G35KT 4SM TSRA BKN090CB
     FM011800 20010KT P6SM VCTS SCT100CB BKN150=

USA.gov is the U.S. government's official web portal to all federal, state and local government web resources and services.